createdAt,value
2022-10-08T00:01:15.098Z,61.00
2022-10-08T00:03:44.493Z,68.60
2022-10-08T00:06:16.567Z,62.70
2022-10-08T00:08:52.004Z,65.10
2022-10-08T00:11:25.523Z,69.30
2022-10-08T00:13:53.939Z,58.90
2022-10-08T00:16:27.881Z,67.40
2022-10-08T00:18:59.156Z,58.60
2022-10-08T00:21:45.365Z,64.70
2022-10-08T00:24:17.260Z,66.70
2022-10-08T00:26:44.643Z,65.50
2022-10-08T00:29:16.323Z,63.60
2022-10-08T00:31:46.567Z,58.70
2022-10-08T00:34:19.450Z,62.30
2022-10-08T00:36:50.207Z,67.30
2022-10-08T00:39:20.387Z,67.40
2022-10-08T00:41:51.715Z,61.80
2022-10-08T00:44:43.018Z,54.60
2022-10-08T00:47:49.016Z,60.00
2022-10-08T00:50:18.556Z,59.10
2022-10-08T00:52:53.248Z,56.60
2022-10-08T00:55:22.588Z,57.70
2022-10-08T00:57:49.129Z,67.30
2022-10-08T01:00:20.455Z,49.40
2022-10-08T01:02:47.354Z,49.80
2022-10-08T01:05:17.146Z,52.50
2022-10-08T01:07:51.213Z,53.50
2022-10-08T01:10:56.529Z,53.70
2022-10-08T01:13:40.031Z,54.40
2022-10-08T01:16:24.062Z,56.60
2022-10-08T01:19:13.496Z,54.70
2022-10-08T01:22:06.084Z,53.80
2022-10-08T01:25:08.129Z,59.30
2022-10-08T01:27:42.328Z,63.70
2022-10-08T01:30:15.546Z,61.10
2022-10-08T01:32:51.086Z,60.70
2022-10-08T01:35:28.040Z,55.90
2022-10-08T01:37:55.533Z,62.80
2022-10-08T01:40:28.398Z,65.80
2022-10-08T01:42:55.513Z,67.30
2022-10-08T01:45:32.073Z,67.30
2022-10-08T01:48:02.874Z,60.00
2022-10-08T01:50:41.367Z,60.70
2022-10-08T01:53:13.166Z,61.60
2022-10-08T01:55:45.632Z,71.60
2022-10-08T01:58:19.023Z,73.80
2022-10-08T02:00:46.946Z,72.70
2022-10-08T02:03:13.458Z,85.80
2022-10-08T02:05:45.468Z,121.20
2022-10-08T02:08:11.909Z,85.60
2022-10-08T02:10:38.438Z,85.10
2022-10-08T02:13:04.908Z,84.70
2022-10-08T02:16:07.724Z,87.30
2022-10-08T02:18:46.076Z,80.30
2022-10-08T02:21:21.710Z,75.50
2022-10-08T02:23:56.081Z,85.60
2022-10-08T02:26:31.396Z,70.30
2022-10-08T02:29:03.526Z,74.50
2022-10-08T02:31:49.567Z,72.10
2022-10-08T02:34:24.969Z,76.90
2022-10-08T02:37:18.024Z,101.30
2022-10-08T02:39:50.755Z,188.80
2022-10-08T02:44:52.154Z,200.60
2022-10-08T02:47:22.087Z,193.30
2022-10-08T02:49:53.490Z,163.20
2022-10-08T02:52:20.893Z,167.20
2022-10-08T02:54:48.289Z,185.30
2022-10-08T02:57:27.994Z,176.90
2022-10-08T02:59:55.185Z,149.30
2022-10-08T03:02:55.314Z,140.60
2022-10-08T03:05:21.975Z,107.60
2022-10-08T03:07:50.503Z,96.90
2022-10-08T03:10:19.326Z,116.60
2022-10-08T03:12:46.507Z,108.90
2022-10-08T03:15:14.251Z,128.40
2022-10-08T03:17:45.823Z,131.80
2022-10-08T03:20:13.128Z,141.70
2022-10-08T03:22:39.997Z,137.10
2022-10-08T03:25:06.716Z,129.00
2022-10-08T03:27:34.580Z,142.50
2022-10-08T03:30:03.080Z,130.10
2022-10-08T03:32:29.536Z,116.30
2022-10-08T03:34:56.161Z,118.20
2022-10-08T03:37:22.577Z,123.10
2022-10-08T03:39:49.002Z,123.00
2022-10-08T03:42:15.436Z,124.80
2022-10-08T03:44:41.852Z,122.20
2022-10-08T03:47:08.231Z,127.60
2022-10-08T03:49:35.022Z,124.00
2022-10-08T03:52:01.345Z,133.00
2022-10-08T03:54:28.046Z,126.40
2022-10-08T03:56:54.461Z,129.40
2022-10-08T03:59:20.890Z,117.40
2022-10-08T04:01:47.335Z,125.90
2022-10-08T04:04:13.732Z,116.20
2022-10-08T04:06:40.177Z,121.60
2022-10-08T04:09:06.792Z,105.40
2022-10-08T04:11:33.266Z,105.50
2022-10-08T04:14:00.380Z,109.90
2022-10-08T04:16:26.905Z,103.10
2022-10-08T04:18:53.322Z,104.50
2022-10-08T04:21:20.013Z,92.60
2022-10-08T04:23:48.958Z,110.70
2022-10-08T04:26:15.718Z,92.70
2022-10-08T04:28:44.085Z,99.60
2022-10-08T04:31:16.012Z,107.00
2022-10-08T04:33:43.991Z,102.60
2022-10-08T04:36:16.843Z,92.00
2022-10-08T04:38:44.770Z,90.90
2022-10-08T04:41:15.642Z,97.70
2022-10-08T04:43:43.803Z,85.50
2022-10-08T04:46:13.689Z,78.30
2022-10-08T04:48:45.846Z,81.50
2022-10-08T04:51:12.379Z,89.10
2022-10-08T04:53:38.969Z,87.20
2022-10-08T04:56:15.009Z,80.60
2022-10-08T04:58:41.359Z,73.90
2022-10-08T05:01:10.638Z,75.90
2022-10-08T05:03:39.389Z,77.70
2022-10-08T05:06:06.539Z,73.20
2022-10-08T05:08:33.573Z,70.90
2022-10-08T05:11:00.045Z,84.60
2022-10-08T05:13:26.615Z,71.30
2022-10-08T05:15:53.489Z,57.90
2022-10-08T05:18:20.110Z,59.30
2022-10-08T05:20:46.594Z,64.10
2022-10-08T05:23:13.423Z,48.60
2022-10-08T05:25:40.124Z,58.10
2022-10-08T05:28:06.866Z,73.00
2022-10-08T05:30:33.635Z,59.50
2022-10-08T05:33:00.438Z,49.50
2022-10-08T05:35:26.964Z,50.40
2022-10-08T05:37:53.705Z,50.30
2022-10-08T05:40:20.360Z,52.90
2022-10-08T05:42:47.020Z,54.90
2022-10-08T05:45:13.826Z,55.10
2022-10-08T05:47:40.203Z,52.40
2022-10-08T05:50:07.543Z,51.50
2022-10-08T05:52:34.611Z,54.90
2022-10-08T05:55:01.650Z,54.50
2022-10-08T05:57:28.507Z,55.80
2022-10-08T05:59:55.099Z,56.90
2022-10-08T06:02:21.743Z,46.60
2022-10-08T06:04:49.514Z,49.90
2022-10-08T06:07:16.477Z,45.10
2022-10-08T06:09:44.448Z,45.40
2022-10-08T06:12:13.180Z,48.30
2022-10-08T06:14:40.221Z,61.50
2022-10-08T06:17:06.871Z,58.10
2022-10-08T06:19:36.412Z,62.90
2022-10-08T06:22:04.414Z,56.10
2022-10-08T06:24:36.817Z,51.40
2022-10-08T06:27:03.419Z,45.60
2022-10-08T06:29:30.319Z,45.00
2022-10-08T06:31:57.036Z,44.30
2022-10-08T06:34:23.955Z,46.70
2022-10-08T06:36:50.596Z,50.80
2022-10-08T06:39:17.809Z,47.40
2022-10-08T06:41:44.946Z,41.60
2022-10-08T06:44:15.219Z,37.10
2022-10-08T06:46:42.441Z,36.70
2022-10-08T06:49:09.836Z,38.80
2022-10-08T06:51:40.061Z,33.10
2022-10-08T06:54:10.558Z,31.90
2022-10-08T06:56:39.046Z,34.20
2022-10-08T06:59:07.443Z,38.80
2022-10-08T07:01:34.607Z,34.00
2022-10-08T07:04:02.052Z,33.00
2022-10-08T07:06:29.179Z,36.10
2022-10-08T07:08:59.603Z,32.40
2022-10-08T07:11:27.532Z,35.30
2022-10-08T07:13:55.554Z,30.70
2022-10-08T07:16:24.325Z,29.90
2022-10-08T07:18:55.441Z,32.90
2022-10-08T07:21:22.727Z,26.80
2022-10-08T07:23:50.415Z,25.90
2022-10-08T07:26:20.934Z,24.80
2022-10-08T07:28:55.108Z,28.90
2022-10-08T07:31:27.556Z,28.10
2022-10-08T07:36:22.898Z,23.50
2022-10-08T07:39:02.070Z,26.20
2022-10-08T07:41:31.978Z,29.40
2022-10-08T07:44:00.882Z,28.50
2022-10-08T07:46:34.516Z,25.10
2022-10-08T07:49:02.269Z,27.30
2022-10-08T07:51:31.145Z,24.20
2022-10-08T07:54:02.504Z,25.60
2022-10-08T07:56:31.751Z,26.80
2022-10-08T07:58:59.809Z,28.50
2022-10-08T08:01:29.264Z,26.80
2022-10-08T08:04:00.456Z,28.00
2022-10-08T08:06:28.069Z,20.10
2022-10-08T08:08:55.151Z,27.70
2022-10-08T08:11:24.162Z,23.80
2022-10-08T08:13:51.625Z,24.80
2022-10-08T08:16:22.274Z,22.30
2022-10-08T08:18:52.061Z,24.90
2022-10-08T08:21:28.529Z,28.80
2022-10-08T08:23:58.874Z,22.90
2022-10-08T08:26:32.283Z,24.20
2022-10-08T08:29:02.450Z,23.70
2022-10-08T08:31:35.547Z,27.00
2022-10-08T08:34:09.591Z,25.70
2022-10-08T08:36:42.536Z,22.30
2022-10-08T08:39:21.629Z,23.10
2022-10-08T08:42:13.162Z,22.40
2022-10-08T08:44:43.600Z,29.50
2022-10-08T08:47:37.137Z,22.70
2022-10-08T08:50:29.412Z,25.40
2022-10-08T08:52:59.289Z,26.80
2022-10-08T08:55:42.223Z,29.00
2022-10-08T08:58:43.021Z,25.60
2022-10-08T09:01:09.539Z,19.50
2022-10-08T09:03:43.301Z,20.20
2022-10-08T09:06:14.514Z,19.30
2022-10-08T09:08:54.731Z,21.30
2022-10-08T09:11:23.627Z,21.10
2022-10-08T09:14:07.433Z,19.10
2022-10-08T09:23:29.934Z,21.40
2022-10-08T09:26:12.129Z,17.80
2022-10-08T09:28:58.256Z,25.30
2022-10-08T09:31:48.842Z,20.30
2022-10-08T09:34:18.941Z,21.80
2022-10-08T09:36:49.182Z,20.10
2022-10-08T09:39:20.358Z,21.90
2022-10-08T09:42:07.433Z,20.60
2022-10-08T09:44:51.992Z,26.90
2022-10-08T09:47:23.050Z,18.90
2022-10-08T09:50:05.933Z,18.00
2022-10-08T09:59:25.867Z,22.70
2022-10-08T10:01:53.265Z,20.40
2022-10-08T10:04:34.289Z,19.40
2022-10-08T10:07:01.044Z,17.30
2022-10-08T10:09:45.306Z,21.10
2022-10-08T10:12:31.481Z,18.20
2022-10-08T10:15:04.285Z,17.70
2022-10-08T10:17:47.353Z,18.10
2022-10-08T10:20:41.034Z,16.10
2022-10-08T10:23:28.379Z,19.00
2022-10-08T10:26:42.322Z,18.10
2022-10-08T10:29:39.100Z,18.70
2022-10-08T10:32:28.550Z,20.90
2022-10-08T10:35:53.359Z,21.40
2022-10-08T10:39:22.658Z,21.00
2022-10-08T10:42:07.186Z,15.00
2022-10-08T10:45:13.185Z,16.70
2022-10-08T10:47:52.248Z,15.40
2022-10-08T10:50:58.918Z,19.50
2022-10-08T10:53:56.821Z,16.70
2022-10-08T10:56:25.514Z,16.60
2022-10-08T10:59:50.811Z,18.50
2022-10-08T11:02:58.397Z,20.10
2022-10-08T11:05:39.467Z,21.90
2022-10-08T11:08:42.336Z,23.10
2022-10-08T11:11:33.216Z,14.80
2022-10-08T11:14:43.381Z,17.60
2022-10-08T11:17:40.863Z,18.90
2022-10-08T11:20:42.252Z,16.60
2022-10-08T11:24:14.011Z,19.70
2022-10-08T11:27:29.232Z,16.70
2022-10-08T11:30:15.034Z,16.50
2022-10-08T11:32:53.147Z,22.50
2022-10-08T11:35:30.335Z,22.30
2022-10-08T11:38:39.164Z,15.00
2022-10-08T11:41:52.327Z,19.40
2022-10-08T11:44:29.764Z,17.00
2022-10-08T11:47:45.983Z,18.60
2022-10-08T11:50:37.597Z,16.30
2022-10-08T11:53:30.541Z,17.10
2022-10-08T11:56:20.689Z,18.70
2022-10-08T11:58:55.598Z,15.70
2022-10-08T12:01:24.153Z,13.50
2022-10-08T12:04:27.927Z,16.20
2022-10-08T12:07:15.905Z,13.00
2022-10-08T12:10:05.915Z,12.80
2022-10-08T12:12:49.168Z,11.70
2022-10-08T12:15:23.446Z,16.70
2022-10-08T12:17:54.565Z,12.50
2022-10-08T12:20:34.239Z,13.00
2022-10-08T12:23:09.395Z,13.00
2022-10-08T12:25:40.398Z,12.70
2022-10-08T12:28:20.917Z,12.70
2022-10-08T12:31:32.323Z,12.00
2022-10-08T12:34:19.685Z,12.60
2022-10-08T12:37:06.180Z,14.50
2022-10-08T12:39:37.425Z,11.70
2022-10-08T12:42:23.156Z,11.30
2022-10-08T12:45:26.715Z,10.50
2022-10-08T12:48:18.133Z,6.80
2022-10-08T12:51:15.599Z,9.50
2022-10-08T12:53:47.107Z,10.80
2022-10-08T12:56:29.252Z,13.00
2022-10-08T12:59:02.025Z,11.80
2022-10-08T13:01:30.383Z,12.30
2022-10-08T13:04:22.197Z,7.80
2022-10-08T13:06:55.296Z,10.50
2022-10-08T13:09:35.396Z,8.70
2022-10-08T13:12:12.077Z,14.40
2022-10-08T13:14:41.177Z,8.50
2022-10-08T13:17:30.763Z,9.70
2022-10-08T13:20:11.403Z,12.40
2022-10-08T13:22:39.282Z,10.20
2022-10-08T13:25:53.603Z,11.30
2022-10-08T13:28:36.408Z,10.20
2022-10-08T13:31:26.635Z,11.30
2022-10-08T13:33:54.909Z,11.80
2022-10-08T13:36:25.079Z,15.30
2022-10-08T13:38:53.112Z,8.80
2022-10-08T13:41:23.989Z,14.10
2022-10-08T13:43:52.528Z,10.40
2022-10-08T13:46:20.924Z,10.30
2022-10-08T13:48:49.076Z,10.70
2022-10-08T13:51:17.536Z,12.70
2022-10-08T13:53:45.868Z,8.10
2022-10-08T13:56:14.016Z,9.90
2022-10-08T13:58:42.362Z,11.50
2022-10-08T14:01:10.726Z,12.00
2022-10-08T14:03:40.294Z,11.50
2022-10-08T14:06:08.514Z,9.00
2022-10-08T14:08:37.330Z,9.80
2022-10-08T14:11:05.894Z,11.70
2022-10-08T14:13:34.039Z,13.80
2022-10-08T14:16:02.245Z,9.80
2022-10-08T14:18:30.559Z,13.00
2022-10-08T14:20:58.479Z,8.60
2022-10-08T14:23:26.296Z,11.30
2022-10-08T14:25:54.219Z,8.80
2022-10-08T14:28:22.085Z,10.80
2022-10-08T14:30:50.009Z,10.00
2022-10-08T14:33:17.869Z,11.00
2022-10-08T14:35:45.934Z,7.70
2022-10-08T14:38:13.753Z,12.70
2022-10-08T14:40:41.827Z,12.20
2022-10-08T14:43:09.720Z,12.00
2022-10-08T14:45:37.737Z,10.50
2022-10-08T14:48:05.854Z,13.50
2022-10-08T14:50:33.656Z,10.00
2022-10-08T14:53:01.585Z,9.30
2022-10-08T14:55:29.453Z,9.20
2022-10-08T14:57:57.379Z,12.00
2022-10-08T15:00:25.342Z,9.80
2022-10-08T15:02:53.391Z,17.10
2022-10-08T15:05:21.558Z,8.10
2022-10-08T15:07:49.556Z,12.90
2022-10-08T15:10:18.095Z,10.00
2022-10-08T15:12:46.705Z,9.00
2022-10-08T15:15:15.399Z,15.40
2022-10-08T15:17:43.544Z,11.80
2022-10-08T15:20:11.635Z,11.10
2022-10-08T15:22:39.804Z,11.90
2022-10-08T15:25:09.416Z,9.30
2022-10-08T15:27:37.515Z,9.00
2022-10-08T15:30:06.305Z,19.00
2022-10-08T15:32:34.525Z,10.90
2022-10-08T15:35:02.507Z,15.10
2022-10-08T15:37:30.333Z,11.10
2022-10-08T15:39:58.355Z,9.40
2022-10-08T15:42:26.486Z,9.20
2022-10-08T15:44:55.315Z,9.60
2022-10-08T15:47:23.727Z,9.60
2022-10-08T15:49:52.084Z,10.10
2022-10-08T15:52:21.856Z,10.10
2022-10-08T15:54:49.728Z,10.20
2022-10-08T15:57:19.028Z,7.60
2022-10-08T15:59:49.566Z,7.50
2022-10-08T16:02:18.770Z,7.70
2022-10-08T16:04:48.093Z,16.00
2022-10-08T16:07:17.386Z,9.80
2022-10-08T16:09:46.255Z,6.90
2022-10-08T16:12:14.785Z,8.00
2022-10-08T16:14:44.223Z,10.00
2022-10-08T16:17:13.437Z,8.20
2022-10-08T16:19:42.282Z,5.80
2022-10-08T16:22:12.586Z,8.40
2022-10-08T16:24:40.934Z,10.00
2022-10-08T16:27:09.482Z,8.10
2022-10-08T16:29:38.529Z,8.00
2022-10-08T16:32:10.903Z,8.50
2022-10-08T16:34:41.842Z,5.90
2022-10-08T16:37:13.600Z,20.10
2022-10-08T16:41:28.165Z,6.70
2022-10-08T16:44:12.269Z,7.90
2022-10-08T16:46:51.339Z,7.70
2022-10-08T16:49:27.155Z,5.20
2022-10-08T16:52:01.839Z,5.90
2022-10-08T16:54:36.236Z,8.00
2022-10-08T16:57:05.069Z,7.20
2022-10-08T16:59:33.122Z,5.80
2022-10-08T17:02:03.583Z,5.70
2022-10-08T17:04:39.055Z,7.30
2022-10-08T17:07:07.791Z,5.70
2022-10-08T17:09:36.440Z,5.40
2022-10-08T17:12:07.967Z,8.40
2022-10-08T17:14:38.128Z,8.70
2022-10-08T17:17:06.653Z,6.80
2022-10-08T17:19:34.989Z,9.70
2022-10-08T17:22:02.962Z,7.00
2022-10-08T17:24:31.436Z,5.50
2022-10-08T17:26:59.934Z,11.60
2022-10-08T17:29:28.603Z,7.80
2022-10-08T17:31:58.937Z,11.00
2022-10-08T17:34:28.332Z,9.70
2022-10-08T17:37:08.312Z,6.50
2022-10-08T17:39:37.081Z,10.30
2022-10-08T17:42:07.326Z,10.70
2022-10-08T17:44:37.718Z,6.80
2022-10-08T17:47:11.770Z,6.60
2022-10-08T17:49:41.863Z,11.40
2022-10-08T17:52:23.974Z,9.00
2022-10-08T17:54:52.755Z,12.20
2022-10-08T17:57:21.277Z,13.00
2022-10-08T17:59:49.457Z,15.20
2022-10-08T18:02:17.905Z,13.60
2022-10-08T18:04:46.679Z,12.00
2022-10-08T18:07:15.572Z,9.40
2022-10-08T18:09:43.925Z,9.60
2022-10-08T18:12:15.176Z,10.70
2022-10-08T18:14:43.632Z,10.90
2022-10-08T18:17:12.368Z,10.00
2022-10-08T18:19:40.702Z,9.30
2022-10-08T18:22:09.266Z,11.10
2022-10-08T18:24:37.578Z,14.60
2022-10-08T18:27:05.974Z,11.70
2022-10-08T18:29:34.755Z,15.20
2022-10-08T18:32:03.132Z,10.60
2022-10-08T18:34:34.950Z,12.40
2022-10-08T18:37:04.001Z,12.40
2022-10-08T18:39:32.375Z,10.60
2022-10-08T18:42:00.639Z,11.40
2022-10-08T18:44:28.711Z,16.20
2022-10-08T18:47:00.675Z,16.10
2022-10-08T18:49:33.864Z,15.10
2022-10-08T18:52:02.048Z,15.80
2022-10-08T18:54:30.427Z,12.20
2022-10-08T18:57:01.889Z,13.50
2022-10-08T18:59:36.869Z,12.40
2022-10-08T19:02:05.055Z,13.30
2022-10-08T19:04:33.126Z,10.80
2022-10-08T19:07:01.300Z,10.90
2022-10-08T19:09:29.413Z,15.40
2022-10-08T19:11:58.154Z,13.00
2022-10-08T19:14:28.992Z,13.10
2022-10-08T19:16:57.267Z,11.60
2022-10-08T19:19:28.868Z,10.40
2022-10-08T19:22:00.960Z,10.40
2022-10-08T19:24:30.068Z,12.30
2022-10-08T19:26:59.984Z,12.80
2022-10-08T19:29:36.276Z,16.50
2022-10-08T19:32:09.645Z,9.60
2022-10-08T19:34:41.098Z,9.60
2022-10-08T19:37:20.739Z,9.50
2022-10-08T19:40:08.854Z,13.50
2022-10-08T19:42:46.364Z,19.40
2022-10-08T19:45:19.182Z,12.60
2022-10-08T19:47:54.001Z,13.50
2022-10-08T19:50:37.340Z,10.60
2022-10-08T19:53:07.750Z,13.60
2022-10-08T19:55:45.655Z,13.50
2022-10-08T19:58:26.514Z,16.00
2022-10-08T20:01:27.929Z,17.40
2022-10-08T20:04:14.090Z,16.40
2022-10-08T20:09:23.117Z,15.80
2022-10-08T20:14:39.603Z,17.30
2022-10-08T20:19:42.093Z,17.10
2022-10-08T20:22:12.007Z,15.20
2022-10-08T20:24:40.413Z,11.40
2022-10-08T20:27:09.086Z,15.20
2022-10-08T20:29:38.721Z,14.00
2022-10-08T20:32:07.570Z,18.30
2022-10-08T20:34:39.171Z,20.00
2022-10-08T20:37:07.715Z,21.80
2022-10-08T20:39:51.914Z,16.90
2022-10-08T20:42:24.167Z,17.90
2022-10-08T20:44:52.147Z,16.30
2022-10-08T20:47:24.195Z,16.20
2022-10-08T20:52:25.307Z,17.80
2022-10-08T20:54:55.640Z,12.70
2022-10-08T20:57:27.820Z,16.20
2022-10-08T20:59:57.165Z,13.40
2022-10-08T21:02:26.805Z,14.60
2022-10-08T21:04:54.713Z,13.40
2022-10-08T21:07:22.628Z,11.60
2022-10-08T21:09:52.973Z,17.80
2022-10-08T21:12:21.537Z,10.90
2022-10-08T21:15:07.286Z,10.90
2022-10-08T21:17:36.105Z,8.20
2022-10-08T21:20:04.751Z,10.80
2022-10-08T21:22:36.663Z,11.10
2022-10-08T21:25:05.822Z,9.70
2022-10-08T21:27:34.115Z,9.70
2022-10-08T21:30:04.451Z,12.20
2022-10-08T21:32:35.211Z,9.00
2022-10-08T21:35:06.283Z,9.80
2022-10-08T21:37:34.475Z,9.50
2022-10-08T21:40:03.628Z,7.70
2022-10-08T21:42:31.944Z,11.40
2022-10-08T21:45:00.226Z,11.50
2022-10-08T21:47:29.115Z,12.00
2022-10-08T21:49:57.301Z,7.70
2022-10-08T21:52:25.522Z,13.70
2022-10-08T21:54:54.069Z,9.80
2022-10-08T21:57:22.645Z,8.90
2022-10-08T21:59:50.883Z,10.30
2022-10-08T22:02:19.452Z,13.20
2022-10-08T22:04:48.759Z,13.80
2022-10-08T22:07:16.760Z,8.00
2022-10-08T22:09:45.499Z,10.60
2022-10-08T22:12:16.167Z,9.80
2022-10-08T22:14:46.459Z,10.80
2022-10-08T22:17:15.924Z,16.60
2022-10-08T22:19:46.297Z,9.90
2022-10-08T22:22:15.466Z,9.70
2022-10-08T22:24:44.733Z,11.60
2022-10-08T22:27:14.703Z,11.00
2022-10-08T22:29:46.157Z,7.40
2022-10-08T22:32:17.365Z,14.60
2022-10-08T22:34:45.945Z,11.60
2022-10-08T22:37:14.367Z,8.20
2022-10-08T22:39:42.446Z,8.80
2022-10-08T22:42:10.877Z,9.20
2022-10-08T22:44:39.470Z,8.60
2022-10-08T22:47:09.043Z,8.30
2022-10-08T22:49:37.380Z,8.90
2022-10-08T22:52:05.293Z,6.10
2022-10-08T22:54:33.573Z,6.50
2022-10-08T22:57:01.645Z,8.70
2022-10-08T22:59:30.676Z,7.40
2022-10-08T23:02:00.514Z,7.80
2022-10-08T23:04:28.853Z,9.70
2022-10-08T23:06:57.058Z,5.10
2022-10-08T23:09:26.885Z,8.80
2022-10-08T23:11:55.395Z,9.20
2022-10-08T23:14:23.478Z,6.20
2022-10-08T23:16:51.784Z,11.70
2022-10-08T23:19:20.208Z,10.80
2022-10-08T23:21:48.221Z,6.70
2022-10-08T23:24:16.271Z,14.40
2022-10-08T23:26:44.229Z,5.70
2022-10-08T23:29:12.811Z,6.70
2022-10-08T23:31:41.132Z,5.80
2022-10-08T23:34:09.799Z,7.10
2022-10-08T23:36:41.951Z,8.60
2022-10-08T23:39:16.438Z,7.90
2022-10-08T23:41:44.657Z,7.00
2022-10-08T23:44:13.646Z,5.50
2022-10-08T23:46:41.835Z,7.60
2022-10-08T23:49:12.803Z,8.80
2022-10-08T23:51:41.241Z,8.60
2022-10-08T23:54:09.330Z,4.90
2022-10-08T23:56:37.383Z,8.00
2022-10-08T23:59:05.484Z,7.90
